sensor_id;sensor_type;location;lat;lon;timestamp;P1;durP1;ratioP1;P2;durP2;ratioP2
12141;SDS011;6134;59.284;18.022;2023-02-12T00:01:47;10.13;;;4.97;;
12141;SDS011;6134;59.284;18.022;2023-02-12T00:04:16;8.75;;;4.70;;
12141;SDS011;6134;59.284;18.022;2023-02-12T00:06:45;9.25;;;4.30;;
12141;SDS011;6134;59.284;18.022;2023-02-12T00:09:14;6.07;;;4.35;;
12141;SDS011;6134;59.284;18.022;2023-02-12T00:11:42;7.75;;;4.50;;
12141;SDS011;6134;59.284;18.022;2023-02-12T00:14:11;4.85;;;3.30;;
12141;SDS011;6134;59.284;18.022;2023-02-12T00:16:41;4.85;;;3.72;;
12141;SDS011;6134;59.284;18.022;2023-02-12T00:19:10;7.75;;;4.55;;
12141;SDS011;6134;59.284;18.022;2023-02-12T00:21:39;5.15;;;3.63;;
12141;SDS011;6134;59.284;18.022;2023-02-12T00:24:07;5.43;;;3.08;;
12141;SDS011;6134;59.284;18.022;2023-02-12T00:26:36;7.25;;;3.60;;
12141;SDS011;6134;59.284;18.022;2023-02-12T00:29:05;5.43;;;3.47;;
12141;SDS011;6134;59.284;18.022;2023-02-12T00:31:34;7.85;;;3.97;;
12141;SDS011;6134;59.284;18.022;2023-02-12T00:34:04;4.72;;;3.60;;
12141;SDS011;6134;59.284;18.022;2023-02-12T00:36:32;6.95;;;3.63;;
12141;SDS011;6134;59.284;18.022;2023-02-12T00:39:01;4.75;;;2.92;;
12141;SDS011;6134;59.284;18.022;2023-02-12T00:41:31;5.57;;;3.40;;
12141;SDS011;6134;59.284;18.022;2023-02-12T00:44:00;5.85;;;3.58;;
12141;SDS011;6134;59.284;18.022;2023-02-12T00:46:28;6.95;;;3.78;;
12141;SDS011;6134;59.284;18.022;2023-02-12T00:48:57;5.85;;;4.45;;
12141;SDS011;6134;59.284;18.022;2023-02-12T00:51:28;11.48;;;6.35;;
12141;SDS011;6134;59.284;18.022;2023-02-12T00:53:57;8.95;;;4.32;;
12141;SDS011;6134;59.284;18.022;2023-02-12T00:56:25;7.22;;;4.05;;
12141;SDS011;6134;59.284;18.022;2023-02-12T00:58:54;5.47;;;4.00;;
12141;SDS011;6134;59.284;18.022;2023-02-12T01:01:24;7.13;;;3.80;;
12141;SDS011;6134;59.284;18.022;2023-02-12T01:03:52;5.72;;;3.33;;
12141;SDS011;6134;59.284;18.022;2023-02-12T01:06:21;6.78;;;2.88;;
12141;SDS011;6134;59.284;18.022;2023-02-12T01:08:51;3.95;;;2.63;;
12141;SDS011;6134;59.284;18.022;2023-02-12T01:11:20;5.18;;;4.20;;
12141;SDS011;6134;59.284;18.022;2023-02-12T01:13:52;5.90;;;3.92;;
12141;SDS011;6134;59.284;18.022;2023-02-12T01:16:23;4.55;;;3.15;;
12141;SDS011;6134;59.284;18.022;2023-02-12T01:18:52;5.30;;;3.28;;
12141;SDS011;6134;59.284;18.022;2023-02-12T01:21:22;5.00;;;2.88;;
12141;SDS011;6134;59.284;18.022;2023-02-12T01:23:53;5.63;;;2.38;;
12141;SDS011;6134;59.284;18.022;2023-02-12T01:26:22;5.15;;;2.55;;
12141;SDS011;6134;59.284;18.022;2023-02-12T01:28:52;3.33;;;1.85;;
12141;SDS011;6134;59.284;18.022;2023-02-12T01:31:22;3.47;;;2.38;;
12141;SDS011;6134;59.284;18.022;2023-02-12T01:33:52;4.22;;;2.40;;
12141;SDS011;6134;59.284;18.022;2023-02-12T01:36:21;7.25;;;2.65;;
12141;SDS011;6134;59.284;18.022;2023-02-12T01:38:50;4.32;;;2.53;;
12141;SDS011;6134;59.284;18.022;2023-02-12T01:41:21;6.38;;;3.03;;
12141;SDS011;6134;59.284;18.022;2023-02-12T01:44:06;4.68;;;3.10;;
12141;SDS011;6134;59.284;18.022;2023-02-12T01:46:35;9.57;;;3.67;;
12141;SDS011;6134;59.284;18.022;2023-02-12T01:49:05;4.30;;;2.28;;
12141;SDS011;6134;59.284;18.022;2023-02-12T01:51:34;7.18;;;3.08;;
12141;SDS011;6134;59.284;18.022;2023-02-12T01:54:06;6.00;;;2.60;;
12141;SDS011;6134;59.284;18.022;2023-02-12T01:56:37;5.50;;;2.17;;
12141;SDS011;6134;59.284;18.022;2023-02-12T01:59:07;4.38;;;2.33;;
12141;SDS011;6134;59.284;18.022;2023-02-12T02:01:36;3.60;;;2.45;;
12141;SDS011;6134;59.284;18.022;2023-02-12T02:04:06;1.75;;;1.60;;
12141;SDS011;6134;59.284;18.022;2023-02-12T02:06:37;3.17;;;2.17;;
12141;SDS011;6134;59.284;18.022;2023-02-12T02:09:07;3.88;;;1.70;;
12141;SDS011;6134;59.284;18.022;2023-02-12T02:11:38;5.95;;;1.73;;
12141;SDS011;6134;59.284;18.022;2023-02-12T02:14:24;5.22;;;1.48;;
12141;SDS011;6134;59.284;18.022;2023-02-12T02:17:07;2.65;;;1.75;;
12141;SDS011;6134;59.284;18.022;2023-02-12T02:19:44;6.50;;;1.90;;
12141;SDS011;6134;59.284;18.022;2023-02-12T02:22:18;3.85;;;1.65;;
12141;SDS011;6134;59.284;18.022;2023-02-12T02:27:53;3.63;;;1.55;;
12141;SDS011;6134;59.284;18.022;2023-02-12T02:30:37;2.85;;;1.30;;
12141;SDS011;6134;59.284;18.022;2023-02-12T02:35:56;2.13;;;1.17;;
12141;SDS011;6134;59.284;18.022;2023-02-12T02:38:30;3.00;;;1.20;;
12141;SDS011;6134;59.284;18.022;2023-02-12T02:41:03;5.25;;;1.42;;
12141;SDS011;6134;59.284;18.022;2023-02-12T02:43:34;2.15;;;0.93;;
12141;SDS011;6134;59.284;18.022;2023-02-12T02:46:06;1.83;;;1.10;;
12141;SDS011;6134;59.284;18.022;2023-02-12T02:48:36;2.88;;;1.25;;
12141;SDS011;6134;59.284;18.022;2023-02-12T02:51:07;4.38;;;1.30;;
12141;SDS011;6134;59.284;18.022;2023-02-12T02:53:37;3.05;;;1.10;;
12141;SDS011;6134;59.284;18.022;2023-02-12T02:56:07;3.95;;;1.35;;
12141;SDS011;6134;59.284;18.022;2023-02-12T02:58:40;2.13;;;1.25;;
12141;SDS011;6134;59.284;18.022;2023-02-12T03:01:12;2.30;;;1.05;;
12141;SDS011;6134;59.284;18.022;2023-02-12T03:03:44;1.92;;;1.00;;
12141;SDS011;6134;59.284;18.022;2023-02-12T03:06:17;2.38;;;1.13;;
12141;SDS011;6134;59.284;18.022;2023-02-12T03:08:48;3.05;;;1.33;;
12141;SDS011;6134;59.284;18.022;2023-02-12T03:11:20;2.10;;;1.30;;
12141;SDS011;6134;59.284;18.022;2023-02-12T03:13:51;3.95;;;1.27;;
12141;SDS011;6134;59.284;18.022;2023-02-12T03:16:24;3.70;;;1.20;;
12141;SDS011;6134;59.284;18.022;2023-02-12T03:18:54;3.10;;;1.30;;
12141;SDS011;6134;59.284;18.022;2023-02-12T03:21:24;2.78;;;1.08;;
12141;SDS011;6134;59.284;18.022;2023-02-12T03:23:56;2.70;;;1.05;;
12141;SDS011;6134;59.284;18.022;2023-02-12T03:26:28;2.60;;;1.00;;
12141;SDS011;6134;59.284;18.022;2023-02-12T03:29:00;2.78;;;0.98;;
12141;SDS011;6134;59.284;18.022;2023-02-12T03:31:30;3.13;;;1.33;;
12141;SDS011;6134;59.284;18.022;2023-02-12T03:34:03;2.42;;;0.98;;
12141;SDS011;6134;59.284;18.022;2023-02-12T03:36:34;3.25;;;1.20;;
12141;SDS011;6134;59.284;18.022;2023-02-12T03:39:07;7.05;;;1.73;;
12141;SDS011;6134;59.284;18.022;2023-02-12T03:41:39;2.83;;;1.10;;
12141;SDS011;6134;59.284;18.022;2023-02-12T03:44:10;3.53;;;1.30;;
12141;SDS011;6134;59.284;18.022;2023-02-12T03:46:44;3.83;;;1.40;;
12141;SDS011;6134;59.284;18.022;2023-02-12T03:49:15;2.65;;;0.93;;
12141;SDS011;6134;59.284;18.022;2023-02-12T03:51:46;3.70;;;1.02;;
12141;SDS011;6134;59.284;18.022;2023-02-12T03:54:15;2.08;;;1.00;;
12141;SDS011;6134;59.284;18.022;2023-02-12T03:56:45;1.60;;;0.98;;
12141;SDS011;6134;59.284;18.022;2023-02-12T03:59:17;2.40;;;1.05;;
12141;SDS011;6134;59.284;18.022;2023-02-12T04:01:48;6.07;;;1.58;;
12141;SDS011;6134;59.284;18.022;2023-02-12T04:04:17;3.47;;;1.23;;
12141;SDS011;6134;59.284;18.022;2023-02-12T04:06:47;3.88;;;1.00;;
12141;SDS011;6134;59.284;18.022;2023-02-12T04:09:16;2.22;;;1.17;;
12141;SDS011;6134;59.284;18.022;2023-02-12T04:11:48;4.72;;;1.80;;
12141;SDS011;6134;59.284;18.022;2023-02-12T04:14:21;3.08;;;1.17;;
12141;SDS011;6134;59.284;18.022;2023-02-12T04:17:01;2.42;;;1.10;;
12141;SDS011;6134;59.284;18.022;2023-02-12T04:19:33;5.40;;;1.77;;
12141;SDS011;6134;59.284;18.022;2023-02-12T04:22:08;1.52;;;0.98;;
12141;SDS011;6134;59.284;18.022;2023-02-12T04:24:41;2.85;;;1.02;;
12141;SDS011;6134;59.284;18.022;2023-02-12T04:27:13;3.83;;;1.33;;
12141;SDS011;6134;59.284;18.022;2023-02-12T04:29:46;3.58;;;1.42;;
12141;SDS011;6134;59.284;18.022;2023-02-12T04:32:18;3.08;;;1.08;;
12141;SDS011;6134;59.284;18.022;2023-02-12T04:34:49;4.63;;;1.40;;
12141;SDS011;6134;59.284;18.022;2023-02-12T04:37:20;3.80;;;1.52;;
12141;SDS011;6134;59.284;18.022;2023-02-12T04:39:50;2.08;;;1.15;;
12141;SDS011;6134;59.284;18.022;2023-02-12T04:42:20;4.10;;;1.40;;
12141;SDS011;6134;59.284;18.022;2023-02-12T04:44:49;4.18;;;2.05;;
12141;SDS011;6134;59.284;18.022;2023-02-12T04:47:19;2.67;;;1.67;;
12141;SDS011;6134;59.284;18.022;2023-02-12T04:49:47;3.53;;;1.27;;
12141;SDS011;6134;59.284;18.022;2023-02-12T04:52:16;4.43;;;1.40;;
12141;SDS011;6134;59.284;18.022;2023-02-12T04:54:45;4.97;;;1.33;;
12141;SDS011;6134;59.284;18.022;2023-02-12T04:57:14;3.45;;;1.45;;
12141;SDS011;6134;59.284;18.022;2023-02-12T04:59:42;2.83;;;1.38;;
12141;SDS011;6134;59.284;18.022;2023-02-12T05:02:11;2.80;;;1.40;;
12141;SDS011;6134;59.284;18.022;2023-02-12T05:04:41;2.20;;;1.30;;
12141;SDS011;6134;59.284;18.022;2023-02-12T05:07:10;3.38;;;1.55;;
12141;SDS011;6134;59.284;18.022;2023-02-12T05:09:39;2.97;;;1.67;;
12141;SDS011;6134;59.284;18.022;2023-02-12T05:12:08;2.95;;;1.65;;
12141;SDS011;6134;59.284;18.022;2023-02-12T05:14:36;2.97;;;1.30;;
12141;SDS011;6134;59.284;18.022;2023-02-12T05:17:05;4.60;;;2.33;;
12141;SDS011;6134;59.284;18.022;2023-02-12T05:19:34;2.70;;;1.52;;
12141;SDS011;6134;59.284;18.022;2023-02-12T05:22:04;2.45;;;1.73;;
12141;SDS011;6134;59.284;18.022;2023-02-12T05:24:32;3.53;;;1.70;;
12141;SDS011;6134;59.284;18.022;2023-02-12T05:27:01;3.03;;;1.48;;
12141;SDS011;6134;59.284;18.022;2023-02-12T05:29:30;2.25;;;1.00;;
12141;SDS011;6134;59.284;18.022;2023-02-12T05:31:59;4.75;;;1.40;;
12141;SDS011;6134;59.284;18.022;2023-02-12T05:34:27;2.60;;;1.50;;
12141;SDS011;6134;59.284;18.022;2023-02-12T05:36:56;3.70;;;1.20;;
12141;SDS011;6134;59.284;18.022;2023-02-12T05:39:26;3.33;;;1.00;;
12141;SDS011;6134;59.284;18.022;2023-02-12T05:41:55;1.23;;;0.80;;
12141;SDS011;6134;59.284;18.022;2023-02-12T05:44:23;1.33;;;0.90;;
12141;SDS011;6134;59.284;18.022;2023-02-12T05:46:52;1.48;;;0.98;;
12141;SDS011;6134;59.284;18.022;2023-02-12T05:49:21;1.75;;;1.20;;
12141;SDS011;6134;59.284;18.022;2023-02-12T05:51:49;2.53;;;1.30;;
12141;SDS011;6134;59.284;18.022;2023-02-12T05:54:18;3.10;;;1.17;;
12141;SDS011;6134;59.284;18.022;2023-02-12T05:56:48;4.03;;;1.38;;
12141;SDS011;6134;59.284;18.022;2023-02-12T05:59:17;1.45;;;1.10;;
12141;SDS011;6134;59.284;18.022;2023-02-12T06:01:47;2.30;;;1.08;;
12141;SDS011;6134;59.284;18.022;2023-02-12T06:04:17;3.00;;;1.10;;
12141;SDS011;6134;59.284;18.022;2023-02-12T06:06:46;3.70;;;1.10;;
12141;SDS011;6134;59.284;18.022;2023-02-12T06:09:15;3.88;;;1.23;;
12141;SDS011;6134;59.284;18.022;2023-02-12T06:11:44;2.90;;;1.00;;
12141;SDS011;6134;59.284;18.022;2023-02-12T06:14:15;4.25;;;1.10;;
12141;SDS011;6134;59.284;18.022;2023-02-12T06:16:44;9.18;;;1.67;;
12141;SDS011;6134;59.284;18.022;2023-02-12T06:19:13;2.75;;;1.05;;
12141;SDS011;6134;59.284;18.022;2023-02-12T06:21:42;3.97;;;1.02;;
12141;SDS011;6134;59.284;18.022;2023-02-12T06:24:11;2.17;;;1.33;;
12141;SDS011;6134;59.284;18.022;2023-02-12T06:26:40;2.97;;;1.10;;
12141;SDS011;6134;59.284;18.022;2023-02-12T06:29:09;2.63;;;1.05;;
12141;SDS011;6134;59.284;18.022;2023-02-12T06:31:40;3.50;;;1.23;;
12141;SDS011;6134;59.284;18.022;2023-02-12T06:34:10;2.20;;;1.02;;
12141;SDS011;6134;59.284;18.022;2023-02-12T06:36:40;2.08;;;1.00;;
12141;SDS011;6134;59.284;18.022;2023-02-12T06:39:10;4.13;;;1.38;;
12141;SDS011;6134;59.284;18.022;2023-02-12T06:41:41;2.72;;;1.20;;
12141;SDS011;6134;59.284;18.022;2023-02-12T06:44:10;3.72;;;1.13;;
12141;SDS011;6134;59.284;18.022;2023-02-12T06:46:40;2.50;;;1.13;;
12141;SDS011;6134;59.284;18.022;2023-02-12T06:49:09;3.50;;;0.93;;
12141;SDS011;6134;59.284;18.022;2023-02-12T06:51:39;2.55;;;1.17;;
12141;SDS011;6134;59.284;18.022;2023-02-12T06:54:11;3.00;;;1.25;;
12141;SDS011;6134;59.284;18.022;2023-02-12T06:56:40;2.35;;;1.25;;
12141;SDS011;6134;59.284;18.022;2023-02-12T06:59:10;3.25;;;1.33;;
12141;SDS011;6134;59.284;18.022;2023-02-12T07:01:41;1.65;;;1.20;;
12141;SDS011;6134;59.284;18.022;2023-02-12T07:04:10;2.55;;;1.30;;
12141;SDS011;6134;59.284;18.022;2023-02-12T07:06:39;1.92;;;0.88;;
12141;SDS011;6134;59.284;18.022;2023-02-12T07:09:08;3.40;;;1.35;;
12141;SDS011;6134;59.284;18.022;2023-02-12T07:11:36;2.72;;;1.13;;
12141;SDS011;6134;59.284;18.022;2023-02-12T07:14:05;3.63;;;1.38;;
12141;SDS011;6134;59.284;18.022;2023-02-12T07:16:34;4.13;;;1.23;;
12141;SDS011;6134;59.284;18.022;2023-02-12T07:19:04;5.15;;;1.83;;
12141;SDS011;6134;59.284;18.022;2023-02-12T07:21:33;4.82;;;1.45;;
12141;SDS011;6134;59.284;18.022;2023-02-12T07:24:01;2.78;;;1.70;;
12141;SDS011;6134;59.284;18.022;2023-02-12T07:26:30;4.00;;;1.70;;
12141;SDS011;6134;59.284;18.022;2023-02-12T07:28:59;5.28;;;1.65;;
12141;SDS011;6134;59.284;18.022;2023-02-12T07:31:28;3.67;;;1.20;;
12141;SDS011;6134;59.284;18.022;2023-02-12T07:33:57;5.47;;;1.38;;
12141;SDS011;6134;59.284;18.022;2023-02-12T07:36:28;2.85;;;1.40;;
12141;SDS011;6134;59.284;18.022;2023-02-12T07:38:57;2.00;;;1.30;;
12141;SDS011;6134;59.284;18.022;2023-02-12T07:41:27;2.38;;;1.50;;
12141;SDS011;6134;59.284;18.022;2023-02-12T07:43:57;2.25;;;1.23;;
12141;SDS011;6134;59.284;18.022;2023-02-12T07:46:27;3.05;;;1.20;;
12141;SDS011;6134;59.284;18.022;2023-02-12T07:48:57;4.60;;;1.40;;
12141;SDS011;6134;59.284;18.022;2023-02-12T07:51:27;5.50;;;1.67;;
12141;SDS011;6134;59.284;18.022;2023-02-12T07:53:58;5.30;;;1.40;;
12141;SDS011;6134;59.284;18.022;2023-02-12T07:56:27;3.35;;;1.70;;
12141;SDS011;6134;59.284;18.022;2023-02-12T07:58:58;3.75;;;1.50;;
12141;SDS011;6134;59.284;18.022;2023-02-12T08:01:28;4.28;;;1.95;;
12141;SDS011;6134;59.284;18.022;2023-02-12T08:03:57;5.45;;;1.30;;
12141;SDS011;6134;59.284;18.022;2023-02-12T08:06:28;4.45;;;1.30;;
12141;SDS011;6134;59.284;18.022;2023-02-12T08:08:58;2.60;;;1.45;;
12141;SDS011;6134;59.284;18.022;2023-02-12T08:11:27;4.30;;;1.85;;
12141;SDS011;6134;59.284;18.022;2023-02-12T08:13:56;4.50;;;2.05;;
12141;SDS011;6134;59.284;18.022;2023-02-12T08:16:27;4.65;;;1.83;;
12141;SDS011;6134;59.284;18.022;2023-02-12T08:18:57;4.00;;;1.52;;
12141;SDS011;6134;59.284;18.022;2023-02-12T08:21:43;2.83;;;1.48;;
12141;SDS011;6134;59.284;18.022;2023-02-12T08:24:12;8.13;;;1.70;;
12141;SDS011;6134;59.284;18.022;2023-02-12T08:26:41;5.43;;;2.05;;
12141;SDS011;6134;59.284;18.022;2023-02-12T08:29:11;5.28;;;1.65;;
12141;SDS011;6134;59.284;18.022;2023-02-12T08:31:41;6.00;;;1.83;;
12141;SDS011;6134;59.284;18.022;2023-02-12T08:34:14;4.75;;;1.38;;
12141;SDS011;6134;59.284;18.022;2023-02-12T08:36:45;6.22;;;1.60;;
12141;SDS011;6134;59.284;18.022;2023-02-12T08:39:14;5.88;;;1.52;;
12141;SDS011;6134;59.284;18.022;2023-02-12T08:41:44;4.82;;;1.75;;
12141;SDS011;6134;59.284;18.022;2023-02-12T08:44:13;5.10;;;2.15;;
12141;SDS011;6134;59.284;18.022;2023-02-12T08:46:42;5.85;;;1.77;;
12141;SDS011;6134;59.284;18.022;2023-02-12T08:49:13;6.10;;;1.50;;
12141;SDS011;6134;59.284;18.022;2023-02-12T08:51:43;4.00;;;1.70;;
12141;SDS011;6134;59.284;18.022;2023-02-12T08:54:15;4.20;;;1.80;;
12141;SDS011;6134;59.284;18.022;2023-02-12T08:56:44;6.13;;;1.90;;
12141;SDS011;6134;59.284;18.022;2023-02-12T08:59:14;4.47;;;2.30;;
12141;SDS011;6134;59.284;18.022;2023-02-12T09:01:43;7.38;;;2.13;;
12141;SDS011;6134;59.284;18.022;2023-02-12T09:04:13;7.03;;;2.22;;
12141;SDS011;6134;59.284;18.022;2023-02-12T09:06:44;4.47;;;2.10;;
12141;SDS011;6134;59.284;18.022;2023-02-12T09:09:13;3.95;;;1.90;;
12141;SDS011;6134;59.284;18.022;2023-02-12T09:11:43;3.30;;;1.35;;
12141;SDS011;6134;59.284;18.022;2023-02-12T09:14:13;6.45;;;1.75;;
12141;SDS011;6134;59.284;18.022;2023-02-12T09:16:42;5.30;;;1.85;;
12141;SDS011;6134;59.284;18.022;2023-02-12T09:19:12;8.82;;;1.95;;
12141;SDS011;6134;59.284;18.022;2023-02-12T09:21:41;7.38;;;2.10;;
12141;SDS011;6134;59.284;18.022;2023-02-12T09:24:10;7.78;;;2.30;;
12141;SDS011;6134;59.284;18.022;2023-02-12T09:26:38;6.35;;;1.92;;
12141;SDS011;6134;59.284;18.022;2023-02-12T09:29:09;4.72;;;2.00;;
12141;SDS011;6134;59.284;18.022;2023-02-12T09:31:38;5.40;;;2.08;;
12141;SDS011;6134;59.284;18.022;2023-02-12T09:34:07;6.50;;;2.15;;
12141;SDS011;6134;59.284;18.022;2023-02-12T09:36:35;6.13;;;2.33;;
12141;SDS011;6134;59.284;18.022;2023-02-12T09:39:04;6.28;;;2.15;;
12141;SDS011;6134;59.284;18.022;2023-02-12T09:44:26;12.40;;;2.40;;
12141;SDS011;6134;59.284;18.022;2023-02-12T09:46:57;5.53;;;2.63;;
12141;SDS011;6134;59.284;18.022;2023-02-12T09:49:40;4.50;;;1.80;;
12141;SDS011;6134;59.284;18.022;2023-02-12T09:52:12;6.07;;;1.98;;
12141;SDS011;6134;59.284;18.022;2023-02-12T09:54:42;7.78;;;2.58;;
12141;SDS011;6134;59.284;18.022;2023-02-12T09:57:13;4.28;;;1.50;;
12141;SDS011;6134;59.284;18.022;2023-02-12T09:59:47;8.32;;;2.00;;
12141;SDS011;6134;59.284;18.022;2023-02-12T10:02:18;5.00;;;2.28;;
12141;SDS011;6134;59.284;18.022;2023-02-12T10:04:47;6.75;;;2.10;;
12141;SDS011;6134;59.284;18.022;2023-02-12T10:07:30;6.60;;;2.22;;
12141;SDS011;6134;59.284;18.022;2023-02-12T10:12:50;5.18;;;2.15;;
12141;SDS011;6134;59.284;18.022;2023-02-12T10:15:27;7.85;;;2.28;;
12141;SDS011;6134;59.284;18.022;2023-02-12T10:18:01;4.35;;;2.00;;
12141;SDS011;6134;59.284;18.022;2023-02-12T10:20:39;5.82;;;1.95;;
12141;SDS011;6134;59.284;18.022;2023-02-12T10:23:16;5.45;;;2.03;;
12141;SDS011;6134;59.284;18.022;2023-02-12T10:25:49;8.70;;;2.38;;
12141;SDS011;6134;59.284;18.022;2023-02-12T10:28:30;8.75;;;2.65;;
12141;SDS011;6134;59.284;18.022;2023-02-12T10:31:03;4.20;;;2.08;;
12141;SDS011;6134;59.284;18.022;2023-02-12T10:33:34;8.27;;;1.95;;
12141;SDS011;6134;59.284;18.022;2023-02-12T10:36:08;4.47;;;1.80;;
12141;SDS011;6134;59.284;18.022;2023-02-12T10:38:41;9.13;;;2.28;;
12141;SDS011;6134;59.284;18.022;2023-02-12T10:41:12;4.28;;;2.13;;
12141;SDS011;6134;59.284;18.022;2023-02-12T10:43:43;9.15;;;2.40;;
12141;SDS011;6134;59.284;18.022;2023-02-12T10:46:13;5.78;;;1.85;;
12141;SDS011;6134;59.284;18.022;2023-02-12T10:48:43;6.15;;;2.30;;
12141;SDS011;6134;59.284;18.022;2023-02-12T10:51:18;9.13;;;2.50;;
12141;SDS011;6134;59.284;18.022;2023-02-12T10:53:49;9.25;;;2.08;;
12141;SDS011;6134;59.284;18.022;2023-02-12T10:56:18;10.80;;;2.30;;
12141;SDS011;6134;59.284;18.022;2023-02-12T10:58:51;9.25;;;2.47;;
12141;SDS011;6134;59.284;18.022;2023-02-12T11:01:24;6.57;;;1.90;;
12141;SDS011;6134;59.284;18.022;2023-02-12T11:03:54;7.55;;;2.35;;
12141;SDS011;6134;59.284;18.022;2023-02-12T11:06:25;6.10;;;2.40;;
12141;SDS011;6134;59.284;18.022;2023-02-12T11:08:55;8.57;;;2.17;;
12141;SDS011;6134;59.284;18.022;2023-02-12T11:11:25;6.47;;;2.10;;
12141;SDS011;6134;59.284;18.022;2023-02-12T11:13:56;5.35;;;1.77;;
12141;SDS011;6134;59.284;18.022;2023-02-12T11:16:27;7.43;;;2.60;;
12141;SDS011;6134;59.284;18.022;2023-02-12T11:18:57;7.60;;;2.30;;
12141;SDS011;6134;59.284;18.022;2023-02-12T11:21:26;7.75;;;2.08;;
12141;SDS011;6134;59.284;18.022;2023-02-12T11:23:55;7.25;;;2.65;;
12141;SDS011;6134;59.284;18.022;2023-02-12T11:26:26;6.93;;;2.20;;
12141;SDS011;6134;59.284;18.022;2023-02-12T11:28:56;11.75;;;3.08;;
12141;SDS011;6134;59.284;18.022;2023-02-12T11:31:26;8.80;;;2.22;;
12141;SDS011;6134;59.284;18.022;2023-02-12T11:34:07;6.95;;;1.98;;
12141;SDS011;6134;59.284;18.022;2023-02-12T11:36:36;7.95;;;2.35;;
12141;SDS011;6134;59.284;18.022;2023-02-12T11:39:09;5.80;;;1.85;;
12141;SDS011;6134;59.284;18.022;2023-02-12T11:41:43;7.78;;;2.60;;
12141;SDS011;6134;59.284;18.022;2023-02-12T11:44:15;5.80;;;2.35;;
12141;SDS011;6134;59.284;18.022;2023-02-12T11:46:45;6.80;;;2.28;;
12141;SDS011;6134;59.284;18.022;2023-02-12T11:49:18;6.45;;;2.15;;
12141;SDS011;6134;59.284;18.022;2023-02-12T11:51:47;8.55;;;2.47;;
12141;SDS011;6134;59.284;18.022;2023-02-12T11:54:17;5.53;;;2.42;;
12141;SDS011;6134;59.284;18.022;2023-02-12T11:56:47;5.10;;;1.95;;
12141;SDS011;6134;59.284;18.022;2023-02-12T11:59:20;12.35;;;2.63;;
12141;SDS011;6134;59.284;18.022;2023-02-12T12:01:53;9.98;;;2.50;;
12141;SDS011;6134;59.284;18.022;2023-02-12T12:04:25;3.38;;;2.15;;
12141;SDS011;6134;59.284;18.022;2023-02-12T12:06:54;8.43;;;2.50;;
12141;SDS011;6134;59.284;18.022;2023-02-12T12:09:26;9.82;;;2.50;;
12141;SDS011;6134;59.284;18.022;2023-02-12T12:11:56;6.82;;;2.22;;
12141;SDS011;6134;59.284;18.022;2023-02-12T12:14:28;4.72;;;2.30;;
12141;SDS011;6134;59.284;18.022;2023-02-12T12:16:58;6.57;;;2.22;;
12141;SDS011;6134;59.284;18.022;2023-02-12T12:19:51;6.07;;;2.10;;
12141;SDS011;6134;59.284;18.022;2023-02-12T12:22:24;7.50;;;2.45;;
12141;SDS011;6134;59.284;18.022;2023-02-12T12:24:55;4.60;;;2.22;;
12141;SDS011;6134;59.284;18.022;2023-02-12T12:27:27;8.02;;;2.00;;
12141;SDS011;6134;59.284;18.022;2023-02-12T12:30:19;11.70;;;2.95;;
12141;SDS011;6134;59.284;18.022;2023-02-12T12:32:50;8.57;;;2.30;;
12141;SDS011;6134;59.284;18.022;2023-02-12T12:35:24;7.68;;;2.42;;
12141;SDS011;6134;59.284;18.022;2023-02-12T12:37:57;9.82;;;2.38;;
12141;SDS011;6134;59.284;18.022;2023-02-12T12:40:35;6.85;;;2.33;;
12141;SDS011;6134;59.284;18.022;2023-02-12T12:43:10;9.15;;;2.47;;
12141;SDS011;6134;59.284;18.022;2023-02-12T12:48:36;5.10;;;2.10;;
12141;SDS011;6134;59.284;18.022;2023-02-12T12:51:16;7.97;;;2.28;;
12141;SDS011;6134;59.284;18.022;2023-02-12T12:53:52;5.70;;;2.13;;
12141;SDS011;6134;59.284;18.022;2023-02-12T12:56:28;10.07;;;2.45;;
12141;SDS011;6134;59.284;18.022;2023-02-12T12:59:04;9.35;;;2.60;;
12141;SDS011;6134;59.284;18.022;2023-02-12T13:01:42;8.93;;;2.53;;
12141;SDS011;6134;59.284;18.022;2023-02-12T13:04:21;6.05;;;2.28;;
12141;SDS011;6134;59.284;18.022;2023-02-12T13:09:47;9.15;;;2.45;;
12141;SDS011;6134;59.284;18.022;2023-02-12T13:12:27;7.72;;;3.22;;
12141;SDS011;6134;59.284;18.022;2023-02-12T13:14:59;6.35;;;2.10;;
12141;SDS011;6134;59.284;18.022;2023-02-12T13:17:31;7.18;;;2.30;;
12141;SDS011;6134;59.284;18.022;2023-02-12T13:20:05;7.72;;;2.58;;
12141;SDS011;6134;59.284;18.022;2023-02-12T13:22:35;5.32;;;2.30;;
12141;SDS011;6134;59.284;18.022;2023-02-12T13:25:14;7.35;;;2.53;;
12141;SDS011;6134;59.284;18.022;2023-02-12T13:27:46;8.63;;;2.45;;
12141;SDS011;6134;59.284;18.022;2023-02-12T13:30:19;8.48;;;2.70;;
12141;SDS011;6134;59.284;18.022;2023-02-12T13:32:50;9.35;;;2.75;;
12141;SDS011;6134;59.284;18.022;2023-02-12T13:35:22;6.15;;;2.08;;
12141;SDS011;6134;59.284;18.022;2023-02-12T13:37:53;9.32;;;2.95;;
12141;SDS011;6134;59.284;18.022;2023-02-12T13:40:24;8.88;;;2.60;;
12141;SDS011;6134;59.284;18.022;2023-02-12T13:42:54;10.38;;;2.78;;
12141;SDS011;6134;59.284;18.022;2023-02-12T13:45:29;6.50;;;2.35;;
12141;SDS011;6134;59.284;18.022;2023-02-12T13:50:55;7.00;;;2.58;;
12141;SDS011;6134;59.284;18.022;2023-02-12T13:53:29;10.45;;;3.33;;
12141;SDS011;6134;59.284;18.022;2023-02-12T13:56:06;11.30;;;2.92;;
12141;SDS011;6134;59.284;18.022;2023-02-12T13:58:38;9.77;;;2.75;;
12141;SDS011;6134;59.284;18.022;2023-02-12T14:01:08;7.03;;;2.53;;
12141;SDS011;6134;59.284;18.022;2023-02-12T14:03:38;7.32;;;3.33;;
12141;SDS011;6134;59.284;18.022;2023-02-12T14:06:10;7.63;;;3.08;;
12141;SDS011;6134;59.284;18.022;2023-02-12T14:08:40;11.65;;;3.63;;
12141;SDS011;6134;59.284;18.022;2023-02-12T14:11:11;8.25;;;2.90;;
12141;SDS011;6134;59.284;18.022;2023-02-12T14:13:46;6.55;;;2.88;;
12141;SDS011;6134;59.284;18.022;2023-02-12T14:16:18;9.82;;;2.92;;
12141;SDS011;6134;59.284;18.022;2023-02-12T14:18:47;7.63;;;2.67;;
12141;SDS011;6134;59.284;18.022;2023-02-12T14:27:16;4.55;;;2.40;;
12141;SDS011;6134;59.284;18.022;2023-02-12T14:29:58;8.05;;;2.53;;
12141;SDS011;6134;59.284;18.022;2023-02-12T14:35:31;7.20;;;2.72;;
12141;SDS011;6134;59.284;18.022;2023-02-12T14:38:01;6.65;;;2.33;;
12141;SDS011;6134;59.284;18.022;2023-02-12T14:40:39;7.38;;;2.58;;
12141;SDS011;6134;59.284;18.022;2023-02-12T14:46:43;6.78;;;2.40;;
12141;SDS011;6134;59.284;18.022;2023-02-12T14:49:17;9.45;;;2.65;;
12141;SDS011;6134;59.284;18.022;2023-02-12T14:51:50;8.48;;;2.63;;
12141;SDS011;6134;59.284;18.022;2023-02-12T14:54:24;6.07;;;2.45;;
12141;SDS011;6134;59.284;18.022;2023-02-12T14:56:54;4.93;;;2.20;;
12141;SDS011;6134;59.284;18.022;2023-02-12T14:59:24;7.63;;;2.50;;
12141;SDS011;6134;59.284;18.022;2023-02-12T15:01:56;15.60;;;2.83;;
12141;SDS011;6134;59.284;18.022;2023-02-12T15:04:27;8.18;;;2.75;;
12141;SDS011;6134;59.284;18.022;2023-02-12T15:06:58;11.70;;;2.28;;
12141;SDS011;6134;59.284;18.022;2023-02-12T15:09:29;5.47;;;2.45;;
12141;SDS011;6134;59.284;18.022;2023-02-12T15:12:02;6.22;;;2.60;;
12141;SDS011;6134;59.284;18.022;2023-02-12T15:14:33;6.05;;;2.83;;
12141;SDS011;6134;59.284;18.022;2023-02-12T15:17:06;5.75;;;2.58;;
12141;SDS011;6134;59.284;18.022;2023-02-12T15:19:39;7.60;;;2.58;;
12141;SDS011;6134;59.284;18.022;2023-02-12T15:24:45;8.50;;;2.67;;
12141;SDS011;6134;59.284;18.022;2023-02-12T15:27:14;6.97;;;2.08;;
12141;SDS011;6134;59.284;18.022;2023-02-12T15:29:44;6.55;;;2.70;;
12141;SDS011;6134;59.284;18.022;2023-02-12T15:32:17;8.00;;;4.43;;
12141;SDS011;6134;59.284;18.022;2023-02-12T15:34:47;12.75;;;3.35;;
12141;SDS011;6134;59.284;18.022;2023-02-12T15:37:18;7.45;;;2.80;;
12141;SDS011;6134;59.284;18.022;2023-02-12T15:39:48;10.52;;;3.50;;
12141;SDS011;6134;59.284;18.022;2023-02-12T15:42:24;7.40;;;2.92;;
12141;SDS011;6134;59.284;18.022;2023-02-12T15:45:00;9.88;;;2.75;;
12141;SDS011;6134;59.284;18.022;2023-02-12T15:47:30;6.97;;;2.78;;